QFA444 YMML-YSSY
Flight info
| Callsign | QFA444 |
|---|---|
| Flight time | 1h 2m |
| Altitude | 39000 |
| Route | DOSEL2/27 DOSEL Y59 RIVET |
| Aircraft | A333/H-SDE2E3FGHIJ3J4J5M1RWXY/LB1D1 |
Departure
| Time | 2026-05-06 06:54 |
|---|---|
| Airport | Melbourne Airport (YMML) |
Arrival
| Time | 2026-05-06 07:56 |
|---|---|
| Airport | Sydney Kingsford Smith International Airport (YSSY) |
| Time | Latitude | Longitude | Altitude | Speed | Heading |
|---|---|---|---|---|---|
| 2026-05-06 06:29 | -37.66902 | 144.84314 | 398 ft | 0 kts | 82° |
| 2026-05-06 06:46 | -37.66904 | 144.84296 | 395 ft | 0 kts | 82° |
| 2026-05-06 06:46 | -37.66908 | 144.84263 | 391 ft | 0 kts | 82° |
| 2026-05-06 06:47 | -37.66912 | 144.84230 | 392 ft | 0 kts | 82° |
| 2026-05-06 06:47 | -37.66915 | 144.84200 | 390 ft | 0 kts | 82° |
| 2026-05-06 06:47 | -37.66915 | 144.84199 | 390 ft | 0 kts | 82° |
| 2026-05-06 06:49 | -37.66918 | 144.84213 | 390 ft | 3 kts | 118° |
| 2026-05-06 06:50 | -37.66942 | 144.84225 | 388 ft | 7 kts | 167° |
| 2026-05-06 06:50 | -37.67006 | 144.84243 | 393 ft | 12 kts | 167° |
| 2026-05-06 06:50 | -37.67108 | 144.84263 | 392 ft | 18 kts | 174° |
| 2026-05-06 06:50 | -37.67248 | 144.84282 | 389 ft | 23 kts | 173° |
| 2026-05-06 06:51 | -37.67418 | 144.84311 | 386 ft | 27 kts | 171° |
| 2026-05-06 06:51 | -37.67611 | 144.84346 | 384 ft | 29 kts | 172° |
| 2026-05-06 06:51 | -37.67828 | 144.84384 | 375 ft | 34 kts | 172° |
| 2026-05-06 06:51 | -37.68071 | 144.84429 | 368 ft | 37 kts | 170° |
| 2026-05-06 06:52 | -37.68293 | 144.84472 | 361 ft | 14 kts | 174° |
| 2026-05-06 06:52 | -37.68391 | 144.84426 | 360 ft | 16 kts | 214° |
| 2026-05-06 06:52 | -37.68503 | 144.84333 | 358 ft | 22 kts | 214° |
| 2026-05-06 06:52 | -37.68557 | 144.84165 | 356 ft | 22 kts | 275° |
| 2026-05-06 06:53 | -37.68519 | 144.84096 | 360 ft | 0 kts | 351° |
| 2026-05-06 06:53 | -37.68355 | 144.84062 | 361 ft | 67 kts | 351° |
| 2026-05-06 06:53 | -37.67911 | 144.83977 | 365 ft | 125 kts | 351° |
| 2026-05-06 06:53 | -37.66392 | 144.83700 | 913 ft | 177 kts | 352° |
| 2026-05-06 06:54 | -37.65223 | 144.83504 | 2283 ft | 164 kts | 347° |
| 2026-05-06 06:54 | -37.64104 | 144.83295 | 3237 ft | 167 kts | 345° |
| 2026-05-06 06:54 | -37.63319 | 144.83136 | 3629 ft | 178 kts | 345° |
| 2026-05-06 06:54 | -37.62035 | 144.82868 | 4263 ft | 196 kts | 345° |
| 2026-05-06 06:55 | -37.60623 | 144.82585 | 4915 ft | 214 kts | 345° |
| 2026-05-06 06:55 | -37.59046 | 144.82570 | 5477 ft | 243 kts | 2° |
| 2026-05-06 06:55 | -37.57340 | 144.83285 | 6111 ft | 272 kts | 18° |
| 2026-05-06 06:55 | -37.55589 | 144.84344 | 7009 ft | 283 kts | 20° |
| 2026-05-06 06:56 | -37.53815 | 144.85466 | 8071 ft | 287 kts | 20° |
| 2026-05-06 06:56 | -37.52015 | 144.86595 | 9154 ft | 291 kts | 20° |
| 2026-05-06 06:56 | -37.50174 | 144.87729 | 10159 ft | 297 kts | 19° |
| 2026-05-06 06:56 | -37.48279 | 144.88883 | 10930 ft | 310 kts | 19° |
| 2026-05-06 06:57 | -37.46279 | 144.90091 | 11552 ft | 328 kts | 20° |
| 2026-05-06 06:57 | -37.44246 | 144.91617 | 12098 ft | 354 kts | 32° |
| 2026-05-06 06:57 | -37.42397 | 144.93829 | 12632 ft | 380 kts | 46° |
| 2026-05-06 06:57 | -37.40787 | 144.96553 | 13378 ft | 393 kts | 51° |
| 2026-05-06 06:58 | -37.39218 | 144.99398 | 14337 ft | 397 kts | 51° |
| 2026-05-06 06:58 | -37.37639 | 145.02286 | 15316 ft | 399 kts | 51° |
| 2026-05-06 06:58 | -37.36070 | 145.05122 | 16242 ft | 402 kts | 50° |
| 2026-05-06 06:58 | -37.34451 | 145.08015 | 17108 ft | 407 kts | 49° |
| 2026-05-06 06:59 | -37.32800 | 145.10941 | 17975 ft | 412 kts | 49° |
| 2026-05-06 06:59 | -37.31117 | 145.13914 | 18770 ft | 417 kts | 49° |
| 2026-05-06 06:59 | -37.29420 | 145.16904 | 19522 ft | 422 kts | 49° |
| 2026-05-06 06:59 | -37.27706 | 145.19923 | 20285 ft | 426 kts | 49° |
| 2026-05-06 07:00 | -37.25976 | 145.22965 | 21072 ft | 430 kts | 49° |
| 2026-05-06 07:00 | -37.24230 | 145.26035 | 21854 ft | 434 kts | 48° |
| 2026-05-06 07:00 | -37.22465 | 145.29136 | 22607 ft | 438 kts | 48° |
| 2026-05-06 07:00 | -37.20683 | 145.32261 | 23388 ft | 442 kts | 48° |
| 2026-05-06 07:01 | -37.18884 | 145.35412 | 24060 ft | 446 kts | 48° |
| 2026-05-06 07:01 | -37.17068 | 145.38588 | 24681 ft | 450 kts | 48° |
| 2026-05-06 07:01 | -37.15236 | 145.41794 | 25314 ft | 453 kts | 47° |
| 2026-05-06 07:01 | -37.13389 | 145.45020 | 25922 ft | 457 kts | 47° |
| 2026-05-06 07:02 | -37.11525 | 145.48272 | 26553 ft | 460 kts | 47° |
| 2026-05-06 07:02 | -37.09649 | 145.51542 | 27184 ft | 464 kts | 47° |
| 2026-05-06 07:02 | -37.07752 | 145.54846 | 27808 ft | 468 kts | 47° |
| 2026-05-06 07:02 | -37.05844 | 145.58164 | 28439 ft | 471 kts | 47° |
| 2026-05-06 07:03 | -37.03920 | 145.61505 | 29054 ft | 474 kts | 47° |
| 2026-05-06 07:03 | -37.01983 | 145.64865 | 29623 ft | 478 kts | 47° |
| 2026-05-06 07:03 | -37.00027 | 145.68256 | 30248 ft | 480 kts | 47° |
| 2026-05-06 07:03 | -36.98084 | 145.71626 | 30928 ft | 478 kts | 47° |
| 2026-05-06 07:04 | -36.96142 | 145.74993 | 31648 ft | 476 kts | 47° |
| 2026-05-06 07:04 | -36.94205 | 145.78345 | 32351 ft | 474 kts | 47° |
| 2026-05-06 07:04 | -36.92275 | 145.81678 | 33026 ft | 472 kts | 47° |
| 2026-05-06 07:04 | -36.90351 | 145.85000 | 33707 ft | 471 kts | 46° |
| 2026-05-06 07:05 | -36.88430 | 145.88310 | 34327 ft | 469 kts | 46° |
| 2026-05-06 07:05 | -36.86513 | 145.91608 | 34853 ft | 469 kts | 46° |
| 2026-05-06 07:05 | -36.84594 | 145.94905 | 35343 ft | 469 kts | 46° |
| 2026-05-06 07:05 | -36.82673 | 145.98203 | 35832 ft | 469 kts | 46° |
| 2026-05-06 07:06 | -36.80755 | 146.01494 | 36337 ft | 469 kts | 46° |
| 2026-05-06 07:06 | -36.78836 | 146.04785 | 36767 ft | 469 kts | 46° |
| 2026-05-06 07:06 | -36.76914 | 146.08075 | 37223 ft | 468 kts | 47° |
| 2026-05-06 07:06 | -36.74996 | 146.11356 | 37660 ft | 468 kts | 47° |
| 2026-05-06 07:07 | -36.73077 | 146.14638 | 38018 ft | 469 kts | 47° |
| 2026-05-06 07:07 | -36.71149 | 146.17932 | 38313 ft | 471 kts | 47° |
| 2026-05-06 07:07 | -36.69210 | 146.21240 | 38620 ft | 473 kts | 47° |
| 2026-05-06 07:07 | -36.67262 | 146.24561 | 38892 ft | 475 kts | 47° |
| 2026-05-06 07:08 | -36.65307 | 146.27890 | 39096 ft | 477 kts | 47° |
| 2026-05-06 07:08 | -36.61376 | 146.34577 | 39097 ft | 477 kts | 47° |
| 2026-05-06 07:09 | -36.57455 | 146.41238 | 39112 ft | 477 kts | 47° |
| 2026-05-06 07:09 | -36.53526 | 146.47895 | 39117 ft | 477 kts | 47° |
| 2026-05-06 07:10 | -36.49594 | 146.54544 | 39124 ft | 477 kts | 47° |
| 2026-05-06 07:10 | -36.45656 | 146.61188 | 39121 ft | 477 kts | 47° |
| 2026-05-06 07:11 | -36.41719 | 146.67821 | 39131 ft | 477 kts | 47° |
| 2026-05-06 07:11 | -36.37798 | 146.74412 | 39128 ft | 477 kts | 47° |
| 2026-05-06 07:12 | -36.33823 | 146.81080 | 39117 ft | 477 kts | 47° |
| 2026-05-06 07:12 | -36.29874 | 146.87692 | 39123 ft | 476 kts | 47° |
| 2026-05-06 07:13 | -36.25924 | 146.94293 | 39120 ft | 476 kts | 47° |
| 2026-05-06 07:13 | -36.21973 | 147.00882 | 39105 ft | 476 kts | 47° |
| 2026-05-06 07:14 | -36.18044 | 147.07419 | 39118 ft | 476 kts | 47° |
| 2026-05-06 07:14 | -36.14084 | 147.14003 | 39116 ft | 476 kts | 47° |
| 2026-05-06 07:15 | -36.10128 | 147.20568 | 39123 ft | 475 kts | 47° |
| 2026-05-06 07:15 | -36.06162 | 147.27129 | 39116 ft | 478 kts | 47° |
| 2026-05-06 07:16 | -36.02156 | 147.33744 | 39131 ft | 481 kts | 47° |
| 2026-05-06 07:16 | -35.98140 | 147.40368 | 39124 ft | 481 kts | 47° |
| 2026-05-06 07:17 | -35.94120 | 147.46984 | 39129 ft | 481 kts | 47° |
| 2026-05-06 07:17 | -35.90096 | 147.53592 | 39126 ft | 481 kts | 47° |
| 2026-05-06 07:18 | -35.86070 | 147.60187 | 39121 ft | 481 kts | 47° |
| 2026-05-06 07:18 | -35.82044 | 147.66775 | 39123 ft | 481 kts | 46° |
| 2026-05-06 07:19 | -35.78016 | 147.73358 | 39113 ft | 480 kts | 47° |
| 2026-05-06 07:19 | -35.73987 | 147.79926 | 39123 ft | 481 kts | 47° |
| 2026-05-06 07:20 | -35.69950 | 147.86496 | 39121 ft | 480 kts | 46° |
| 2026-05-06 07:20 | -35.65910 | 147.93056 | 39118 ft | 480 kts | 46° |
| 2026-05-06 07:21 | -35.61863 | 147.99612 | 39115 ft | 481 kts | 46° |
| 2026-05-06 07:21 | -35.57815 | 148.06161 | 39115 ft | 481 kts | 46° |
| 2026-05-06 07:22 | -35.53762 | 148.12704 | 39113 ft | 481 kts | 46° |
| 2026-05-06 07:22 | -35.49691 | 148.19261 | 39096 ft | 484 kts | 46° |
| 2026-05-06 07:23 | -35.45536 | 148.25930 | 39117 ft | 499 kts | 46° |
| 2026-05-06 07:23 | -35.41329 | 148.32689 | 39111 ft | 503 kts | 46° |
| 2026-05-06 07:24 | -35.37075 | 148.39515 | 39110 ft | 503 kts | 46° |
| 2026-05-06 07:24 | -35.32781 | 148.46387 | 39112 ft | 504 kts | 46° |
| 2026-05-06 07:25 | -35.28541 | 148.53157 | 39105 ft | 504 kts | 46° |
| 2026-05-06 07:25 | -35.24264 | 148.59968 | 39098 ft | 504 kts | 46° |
| 2026-05-06 07:26 | -35.19979 | 148.66777 | 39086 ft | 505 kts | 46° |
| 2026-05-06 07:26 | -35.15723 | 148.73541 | 39085 ft | 489 kts | 46° |
| 2026-05-06 07:27 | -35.11590 | 148.80088 | 38782 ft | 485 kts | 46° |
| 2026-05-06 07:27 | -35.09521 | 148.83354 | 38214 ft | 485 kts | 46° |
| 2026-05-06 07:27 | -35.07451 | 148.86617 | 37659 ft | 485 kts | 46° |
| 2026-05-06 07:27 | -35.05385 | 148.89873 | 37064 ft | 485 kts | 46° |
| 2026-05-06 07:28 | -35.03316 | 148.93132 | 36435 ft | 486 kts | 46° |
| 2026-05-06 07:28 | -35.01245 | 148.96392 | 35837 ft | 486 kts | 47° |
| 2026-05-06 07:28 | -34.97110 | 149.02896 | 34754 ft | 483 kts | 47° |
| 2026-05-06 07:29 | -34.95048 | 149.06136 | 34200 ft | 483 kts | 47° |
| 2026-05-06 07:29 | -34.92992 | 149.09364 | 33616 ft | 481 kts | 47° |
| 2026-05-06 07:29 | -34.90946 | 149.12576 | 33003 ft | 479 kts | 47° |
| 2026-05-06 07:29 | -34.88897 | 149.15785 | 32382 ft | 478 kts | 47° |
| 2026-05-06 07:30 | -34.86854 | 149.18983 | 31746 ft | 478 kts | 47° |
| 2026-05-06 07:30 | -34.84807 | 149.22183 | 31114 ft | 478 kts | 48° |
| 2026-05-06 07:30 | -34.82759 | 149.25381 | 30462 ft | 479 kts | 48° |
| 2026-05-06 07:30 | -34.80704 | 149.28587 | 29707 ft | 480 kts | 48° |
| 2026-05-06 07:31 | -34.78649 | 149.31793 | 29182 ft | 476 kts | 48° |
| 2026-05-06 07:31 | -34.76632 | 149.34952 | 28721 ft | 470 kts | 49° |
| 2026-05-06 07:31 | -34.74731 | 149.38174 | 28255 ft | 466 kts | 52° |
| 2026-05-06 07:31 | -34.72995 | 149.41493 | 27827 ft | 463 kts | 56° |
| 2026-05-06 07:32 | -34.71432 | 149.44894 | 27396 ft | 459 kts | 58° |
| 2026-05-06 07:32 | -34.69943 | 149.48308 | 26982 ft | 454 kts | 58° |
| 2026-05-06 07:32 | -34.68475 | 149.51693 | 26570 ft | 450 kts | 59° |
| 2026-05-06 07:32 | -34.67018 | 149.55048 | 26155 ft | 446 kts | 58° |
| 2026-05-06 07:33 | -34.65571 | 149.58369 | 25738 ft | 443 kts | 58° |
| 2026-05-06 07:33 | -34.64131 | 149.61665 | 25309 ft | 439 kts | 58° |
| 2026-05-06 07:33 | -34.62699 | 149.64936 | 24901 ft | 436 kts | 58° |
| 2026-05-06 07:33 | -34.61278 | 149.68180 | 24477 ft | 434 kts | 58° |
| 2026-05-06 07:34 | -34.59864 | 149.71406 | 24083 ft | 431 kts | 58° |
| 2026-05-06 07:34 | -34.58459 | 149.74610 | 23662 ft | 428 kts | 59° |
| 2026-05-06 07:34 | -34.57060 | 149.77795 | 23187 ft | 426 kts | 59° |
| 2026-05-06 07:34 | -34.55670 | 149.80955 | 22747 ft | 422 kts | 59° |
| 2026-05-06 07:35 | -34.54289 | 149.84091 | 22317 ft | 419 kts | 59° |
| 2026-05-06 07:35 | -34.52917 | 149.87203 | 21898 ft | 416 kts | 59° |
| 2026-05-06 07:35 | -34.51556 | 149.90286 | 21481 ft | 413 kts | 59° |
| 2026-05-06 07:35 | -34.50202 | 149.93352 | 21058 ft | 411 kts | 59° |
| 2026-05-06 07:36 | -34.48857 | 149.96401 | 20636 ft | 408 kts | 59° |
| 2026-05-06 07:36 | -34.47517 | 149.99433 | 20220 ft | 406 kts | 59° |
| 2026-05-06 07:36 | -34.46185 | 150.02446 | 19831 ft | 404 kts | 59° |
| 2026-05-06 07:36 | -34.44854 | 150.05447 | 19404 ft | 403 kts | 59° |
| 2026-05-06 07:37 | -34.43530 | 150.08434 | 18991 ft | 401 kts | 59° |
| 2026-05-06 07:37 | -34.42209 | 150.11410 | 18568 ft | 400 kts | 59° |
| 2026-05-06 07:37 | -34.40880 | 150.14399 | 18126 ft | 399 kts | 59° |
| 2026-05-06 07:37 | -34.39560 | 150.17365 | 17675 ft | 397 kts | 59° |
| 2026-05-06 07:38 | -34.38272 | 150.20256 | 17258 ft | 394 kts | 59° |
| 2026-05-06 07:38 | -34.36971 | 150.23179 | 16873 ft | 390 kts | 59° |
| 2026-05-06 07:38 | -34.35684 | 150.26067 | 16477 ft | 387 kts | 59° |
| 2026-05-06 07:38 | -34.34408 | 150.28930 | 16081 ft | 385 kts | 59° |
| 2026-05-06 07:39 | -34.33139 | 150.31773 | 15679 ft | 382 kts | 59° |
| 2026-05-06 07:39 | -34.31880 | 150.34594 | 15297 ft | 380 kts | 59° |
| 2026-05-06 07:39 | -34.30624 | 150.37402 | 14898 ft | 378 kts | 59° |
| 2026-05-06 07:39 | -34.29375 | 150.40193 | 14489 ft | 376 kts | 58° |
| 2026-05-06 07:40 | -34.28132 | 150.42968 | 14087 ft | 374 kts | 58° |
| 2026-05-06 07:40 | -34.27299 | 150.44832 | 13815 ft | 373 kts | 59° |
| 2026-05-06 07:40 | -34.26067 | 150.47587 | 13394 ft | 371 kts | 59° |
| 2026-05-06 07:40 | -34.24859 | 150.50287 | 12981 ft | 368 kts | 59° |
| 2026-05-06 07:41 | -34.23646 | 150.52999 | 12581 ft | 365 kts | 59° |
| 2026-05-06 07:41 | -34.22035 | 150.56594 | 12047 ft | 361 kts | 59° |
| 2026-05-06 07:41 | -34.21242 | 150.58362 | 11789 ft | 360 kts | 59° |
| 2026-05-06 07:41 | -34.20053 | 150.61012 | 11397 ft | 357 kts | 59° |
| 2026-05-06 07:42 | -34.18874 | 150.63639 | 11002 ft | 354 kts | 59° |
| 2026-05-06 07:42 | -34.17703 | 150.66246 | 10638 ft | 350 kts | 59° |
| 2026-05-06 07:42 | -34.16552 | 150.68808 | 10373 ft | 342 kts | 59° |
| 2026-05-06 07:42 | -34.15434 | 150.71294 | 10217 ft | 330 kts | 59° |
| 2026-05-06 07:43 | -34.14358 | 150.73686 | 10130 ft | 317 kts | 59° |
| 2026-05-06 07:43 | -34.13318 | 150.75996 | 10027 ft | 305 kts | 59° |
| 2026-05-06 07:43 | -34.12324 | 150.78202 | 9935 ft | 293 kts | 59° |
| 2026-05-06 07:43 | -34.11349 | 150.80361 | 9508 ft | 295 kts | 59° |
| 2026-05-06 07:44 | -34.10363 | 150.82541 | 9079 ft | 296 kts | 59° |
| 2026-05-06 07:44 | -34.09382 | 150.84717 | 8715 ft | 294 kts | 59° |
| 2026-05-06 07:44 | -34.08407 | 150.86884 | 8351 ft | 293 kts | 59° |
| 2026-05-06 07:44 | -34.07438 | 150.89038 | 8057 ft | 290 kts | 59° |
| 2026-05-06 07:45 | -34.06469 | 150.91190 | 8007 ft | 292 kts | 59° |
| 2026-05-06 07:45 | -34.05488 | 150.93335 | 7977 ft | 292 kts | 55° |
| 2026-05-06 07:45 | -34.04112 | 150.95061 | 7891 ft | 281 kts | 29° |
| 2026-05-06 07:45 | -34.02337 | 150.95828 | 7702 ft | 266 kts | 1° |
| 2026-05-06 07:46 | -34.00533 | 150.95781 | 7543 ft | 255 kts | 352° |
| 2026-05-06 07:46 | -33.98787 | 150.95555 | 7309 ft | 251 kts | 350° |
| 2026-05-06 07:46 | -33.97041 | 150.95368 | 6993 ft | 251 kts | 355° |
| 2026-05-06 07:46 | -33.95295 | 150.95354 | 6709 ft | 251 kts | 357° |
| 2026-05-06 07:47 | -33.93555 | 150.95381 | 6401 ft | 250 kts | 358° |
| 2026-05-06 07:47 | -33.91819 | 150.95414 | 6090 ft | 249 kts | 358° |
| 2026-05-06 07:47 | -33.90092 | 150.95447 | 5792 ft | 248 kts | 358° |
| 2026-05-06 07:47 | -33.88373 | 150.95476 | 5511 ft | 246 kts | 358° |
| 2026-05-06 07:48 | -33.86685 | 150.95501 | 5224 ft | 245 kts | 358° |
| 2026-05-06 07:48 | -33.84981 | 150.95525 | 4936 ft | 244 kts | 358° |
| 2026-05-06 07:48 | -33.83292 | 150.95546 | 4637 ft | 242 kts | 358° |
| 2026-05-06 07:48 | -33.81612 | 150.95549 | 4346 ft | 241 kts | 358° |
| 2026-05-06 07:49 | -33.79943 | 150.95533 | 4096 ft | 238 kts | 358° |
| 2026-05-06 07:49 | -33.78300 | 150.95507 | 3948 ft | 231 kts | 358° |
| 2026-05-06 07:49 | -33.76722 | 150.95597 | 3788 ft | 225 kts | 16° |
| 2026-05-06 07:49 | -33.75477 | 150.96633 | 3544 ft | 219 kts | 53° |
| 2026-05-06 07:50 | -33.74899 | 150.98312 | 3162 ft | 220 kts | 82° |
| 2026-05-06 07:50 | -33.74858 | 151.00134 | 2987 ft | 217 kts | 89° |
| 2026-05-06 07:50 | -33.74872 | 151.01954 | 2979 ft | 215 kts | 88° |
| 2026-05-06 07:50 | -33.74867 | 151.03723 | 2973 ft | 210 kts | 87° |
| 2026-05-06 07:51 | -33.74843 | 151.05474 | 2979 ft | 210 kts | 86° |
| 2026-05-06 07:51 | -33.74804 | 151.07241 | 2990 ft | 210 kts | 86° |
| 2026-05-06 07:51 | -33.74763 | 151.09006 | 2985 ft | 211 kts | 86° |
| 2026-05-06 07:51 | -33.74733 | 151.10777 | 2976 ft | 212 kts | 94° |
| 2026-05-06 07:52 | -33.75286 | 151.12390 | 2951 ft | 215 kts | 138° |
| 2026-05-06 07:52 | -33.76613 | 151.13167 | 3025 ft | 216 kts | 169° |
| 2026-05-06 07:52 | -33.78094 | 151.13459 | 2940 ft | 215 kts | 173° |
| 2026-05-06 07:52 | -33.79567 | 151.13720 | 2709 ft | 214 kts | 171° |
| 2026-05-06 07:53 | -33.81015 | 151.14044 | 2420 ft | 212 kts | 168° |
| 2026-05-06 07:53 | -33.82459 | 151.14415 | 2134 ft | 211 kts | 167° |
| 2026-05-06 07:53 | -33.83890 | 151.14797 | 1858 ft | 209 kts | 167° |
| 2026-05-06 07:53 | -33.85300 | 151.15169 | 1574 ft | 207 kts | 166° |
| 2026-05-06 07:54 | -33.86707 | 151.15536 | 1287 ft | 206 kts | 166° |
| 2026-05-06 07:54 | -33.88097 | 151.15897 | 1033 ft | 201 kts | 166° |
| 2026-05-06 07:54 | -33.89446 | 151.16248 | 801 ft | 193 kts | 165° |
| 2026-05-06 07:54 | -33.90730 | 151.16584 | 488 ft | 183 kts | 166° |
| 2026-05-06 07:55 | -33.91935 | 151.16897 | 256 ft | 171 kts | 166° |
| 2026-05-06 07:55 | -33.93054 | 151.17186 | 62 ft | 157 kts | 165° |
| 2026-05-06 07:55 | -33.94023 | 151.17446 | 35 ft | 121 kts | 167° |
| 2026-05-06 07:55 | -33.94683 | 151.17614 | 38 ft | 84 kts | 167° |
| 2026-05-06 07:56 | -33.95086 | 151.17719 | 36 ft | 25 kts | 168° |
| 2026-05-06 07:56 | -33.95143 | 151.17788 | 37 ft | 12 kts | 97° |
| 2026-05-06 07:56 | -33.95137 | 151.17896 | 39 ft | 10 kts | 72° |
| 2026-05-06 07:56 | -33.95107 | 151.17931 | 39 ft | 7 kts | 20° |
| 2026-05-06 07:57 | -33.95053 | 151.17930 | 39 ft | 10 kts | 352° |
| 2026-05-06 07:57 | -33.95013 | 151.17921 | 39 ft | 0 kts | 348° |